createdAt,value
2018-06-29T00:01:15.449Z,78.90
2018-06-29T00:03:44.343Z,78.90
2018-06-29T00:06:13.222Z,78.90
2018-06-29T00:08:42.972Z,78.90
2018-06-29T00:11:11.843Z,79.00
2018-06-29T00:13:40.709Z,79.00
2018-06-29T00:16:09.590Z,79.10
2018-06-29T00:18:38.519Z,79.00
2018-06-29T00:21:07.422Z,79.00
2018-06-29T00:23:36.790Z,79.10
2018-06-29T00:28:34.260Z,79.20
2018-06-29T00:31:03.188Z,79.10
2018-06-29T00:33:32.051Z,79.10
2018-06-29T00:36:01.324Z,79.10
2018-06-29T00:38:30.221Z,79.10
2018-06-29T00:40:59.113Z,79.10
2018-06-29T00:43:28.072Z,79.00
2018-06-29T00:45:57.001Z,79.10
2018-06-29T00:48:26.146Z,79.10
2018-06-29T00:50:55.067Z,79.10
2018-06-29T00:53:23.918Z,79.20
2018-06-29T00:55:52.787Z,79.20
2018-06-29T00:58:21.701Z,79.20
2018-06-29T01:00:50.822Z,79.20
2018-06-29T01:03:19.672Z,79.20
2018-06-29T01:05:48.661Z,79.20
2018-06-29T01:08:17.610Z,79.10
2018-06-29T01:10:46.484Z,79.20
2018-06-29T01:13:15.465Z,79.10
2018-06-29T01:15:44.436Z,79.20
2018-06-29T01:18:13.650Z,79.00
2018-06-29T01:20:42.678Z,79.00
2018-06-29T01:23:11.536Z,78.80
2018-06-29T01:25:40.453Z,78.90
2018-06-29T01:28:09.335Z,79.00
2018-06-29T01:30:38.221Z,78.90
2018-06-29T01:33:07.342Z,79.00
2018-06-29T01:38:04.866Z,78.90
2018-06-29T01:40:33.730Z,78.90
2018-06-29T01:43:02.595Z,78.90
2018-06-29T01:45:31.478Z,78.90
2018-06-29T01:50:28.982Z,79.00
2018-06-29T01:52:57.878Z,78.90
2018-06-29T01:55:26.818Z,78.90
2018-06-29T01:57:55.679Z,79.00
2018-06-29T02:00:24.535Z,79.00
2018-06-29T02:02:53.487Z,79.00
2018-06-29T02:05:22.339Z,79.00
2018-06-29T02:07:51.240Z,79.10
2018-06-29T02:10:20.242Z,79.10
2018-06-29T02:12:49.054Z,79.00
2018-06-29T02:17:46.398Z,79.00
2018-06-29T02:20:15.247Z,79.00
2018-06-29T02:22:44.133Z,79.00
2018-06-29T02:27:41.624Z,79.00
2018-06-29T02:30:10.544Z,79.00
2018-06-29T02:32:39.393Z,79.10
2018-06-29T02:35:08.218Z,79.80
2018-06-29T02:37:37.151Z,79.10
2018-06-29T02:40:06.029Z,79.20
2018-06-29T02:42:34.993Z,79.20
2018-06-29T02:45:03.878Z,79.10
2018-06-29T02:47:32.754Z,79.20
2018-06-29T02:50:01.619Z,79.30
2018-06-29T02:52:30.477Z,79.20
2018-06-29T02:57:27.833Z,79.30
2018-06-29T03:02:25.271Z,79.40
2018-06-29T03:04:54.101Z,79.40
2018-06-29T03:07:22.982Z,79.40
2018-06-29T03:09:51.818Z,79.40
2018-06-29T03:12:20.731Z,79.40
2018-06-29T03:14:49.576Z,79.50
2018-06-29T03:17:18.453Z,79.40
2018-06-29T03:19:47.356Z,79.40
2018-06-29T03:22:16.208Z,79.50
2018-06-29T03:24:45.062Z,79.50
2018-06-29T03:27:13.912Z,79.50
2018-06-29T03:29:42.755Z,79.60
2018-06-29T03:32:11.626Z,79.60
2018-06-29T03:34:40.474Z,79.60
2018-06-29T03:37:09.410Z,79.60
2018-06-29T03:39:38.284Z,79.60
2018-06-29T03:42:07.148Z,79.60
2018-06-29T03:44:35.991Z,79.60
2018-06-29T03:47:04.960Z,79.60
2018-06-29T03:49:33.874Z,79.60
2018-06-29T03:52:02.714Z,79.60
2018-06-29T03:54:31.578Z,79.60
2018-06-29T03:57:00.431Z,79.50
2018-06-29T03:59:29.282Z,79.40
2018-06-29T04:01:58.136Z,79.20
2018-06-29T04:04:27.004Z,79.20
2018-06-29T04:06:55.961Z,79.10
2018-06-29T04:09:24.857Z,78.90
2018-06-29T04:11:53.706Z,79.00
2018-06-29T04:14:22.546Z,78.90
2018-06-29T04:16:51.412Z,78.80
2018-06-29T04:19:20.286Z,78.70
2018-06-29T04:21:49.176Z,78.60
2018-06-29T04:24:18.057Z,78.60
2018-06-29T04:26:47.146Z,78.40
2018-06-29T04:31:44.526Z,78.20
2018-06-29T04:34:13.626Z,78.20
2018-06-29T04:36:42.483Z,78.10
2018-06-29T04:39:11.735Z,77.90
2018-06-29T04:41:40.555Z,77.90
2018-06-29T04:44:09.414Z,77.80
2018-06-29T04:46:38.250Z,77.60
2018-06-29T04:49:07.158Z,77.60
2018-06-29T04:51:36.052Z,77.60
2018-06-29T04:54:04.909Z,78.20
2018-06-29T04:56:33.762Z,77.50
2018-06-29T04:59:02.614Z,77.60
2018-06-29T05:01:31.529Z,77.50
2018-06-29T05:04:00.390Z,77.50
2018-06-29T05:06:29.295Z,77.50
2018-06-29T05:08:58.211Z,77.60
2018-06-29T05:11:27.101Z,77.50
2018-06-29T05:13:56.070Z,77.40
2018-06-29T05:16:24.923Z,77.40
2018-06-29T05:18:53.812Z,77.30
2018-06-29T05:21:22.683Z,77.40
2018-06-29T05:23:51.574Z,77.50
2018-06-29T05:26:20.454Z,77.50
2018-06-29T05:28:49.349Z,77.50
2018-06-29T05:31:18.192Z,77.50
2018-06-29T05:33:47.044Z,77.60
2018-06-29T05:36:15.965Z,77.50
2018-06-29T05:38:44.855Z,77.60
2018-06-29T05:41:13.732Z,77.60
2018-06-29T05:43:42.598Z,77.60
2018-06-29T05:46:11.517Z,77.70
2018-06-29T05:48:40.302Z,77.70
2018-06-29T05:51:09.170Z,77.70
2018-06-29T05:53:38.070Z,77.70
2018-06-29T05:56:07.260Z,77.40
2018-06-29T05:58:36.152Z,77.80
2018-06-29T06:01:08.342Z,77.90
2018-06-29T06:03:37.258Z,78.10
2018-06-29T06:06:06.588Z,78.20
2018-06-29T06:08:35.430Z,78.30
2018-06-29T06:11:04.381Z,78.30
2018-06-29T06:13:33.399Z,78.40
2018-06-29T06:16:02.575Z,78.50
2018-06-29T06:18:31.494Z,78.50
2018-06-29T06:21:00.378Z,78.70
2018-06-29T06:23:29.269Z,78.70
2018-06-29T06:25:58.227Z,78.90
2018-06-29T06:28:27.092Z,78.80
2018-06-29T06:30:55.942Z,78.90
2018-06-29T06:33:24.886Z,78.90
2018-06-29T06:35:53.837Z,78.90
2018-06-29T06:38:22.714Z,78.90
2018-06-29T06:40:51.611Z,79.00
2018-06-29T06:43:20.478Z,79.00
2018-06-29T06:48:17.914Z,79.10
2018-06-29T06:50:46.785Z,79.00
2018-06-29T06:53:15.688Z,79.10
2018-06-29T06:55:44.522Z,79.10
2018-06-29T06:58:13.395Z,79.10
2018-06-29T07:00:42.268Z,79.10
2018-06-29T07:03:11.098Z,79.10
2018-06-29T07:05:39.966Z,79.10
2018-06-29T07:08:08.858Z,79.10
2018-06-29T07:13:06.231Z,79.20
2018-06-29T07:18:03.680Z,79.40
2018-06-29T07:20:32.550Z,80.20
2018-06-29T07:23:01.447Z,81.10
2018-06-29T07:25:30.321Z,81.20
2018-06-29T07:27:59.172Z,81.50
2018-06-29T07:30:28.176Z,81.30
2018-06-29T07:32:57.070Z,81.20
2018-06-29T07:35:25.913Z,81.30
2018-06-29T07:37:55.482Z,81.00
2018-06-29T07:40:24.254Z,81.00
2018-06-29T07:42:53.214Z,80.40
2018-06-29T07:45:22.046Z,79.70
2018-06-29T07:47:51.042Z,79.80
2018-06-29T07:50:19.910Z,79.80
2018-06-29T07:52:49.239Z,80.00
2018-06-29T07:55:18.116Z,79.50
2018-06-29T07:57:47.274Z,79.70
2018-06-29T08:00:16.154Z,79.90
2018-06-29T08:05:13.483Z,79.70
2018-06-29T08:07:42.386Z,79.40
2018-06-29T08:10:11.328Z,79.40
2018-06-29T08:12:40.206Z,79.20
2018-06-29T08:15:09.100Z,79.30
2018-06-29T08:17:37.974Z,79.80
2018-06-29T08:20:06.890Z,79.20
2018-06-29T08:22:35.738Z,79.10
2018-06-29T08:25:08.681Z,78.40
2018-06-29T08:27:37.867Z,78.30
2018-06-29T08:30:07.558Z,78.40
2018-06-29T08:32:36.410Z,77.90
2018-06-29T08:35:05.394Z,78.20
2018-06-29T08:37:34.283Z,78.00
2018-06-29T08:40:03.184Z,77.70
2018-06-29T08:42:32.066Z,78.10
2018-06-29T08:45:00.996Z,77.80
2018-06-29T08:47:29.898Z,77.60
2018-06-29T08:52:36.787Z,77.50
2018-06-29T08:55:05.718Z,77.60
2018-06-29T08:57:34.651Z,77.80
2018-06-29T09:00:04.270Z,77.80
2018-06-29T09:02:33.157Z,77.20
2018-06-29T09:05:02.071Z,77.20
2018-06-29T09:07:30.933Z,77.30
2018-06-29T09:09:59.784Z,76.90
2018-06-29T09:12:28.642Z,77.00
2018-06-29T09:14:57.482Z,77.20
2018-06-29T09:17:26.294Z,76.90
2018-06-29T09:19:55.279Z,76.50
2018-06-29T09:22:24.116Z,76.60
2018-06-29T09:24:53.126Z,76.30
2018-06-29T09:27:21.979Z,76.50
2018-06-29T09:29:50.863Z,76.30
2018-06-29T09:32:19.710Z,76.30
2018-06-29T09:34:48.594Z,76.30
2018-06-29T09:39:45.932Z,76.10
2018-06-29T09:42:14.799Z,76.20
2018-06-29T09:44:43.658Z,76.30
2018-06-29T09:47:12.486Z,76.20
2018-06-29T09:49:41.322Z,76.20
2018-06-29T09:52:10.384Z,76.20
2018-06-29T09:54:39.182Z,76.20
2018-06-29T09:57:08.026Z,76.30
2018-06-29T09:59:36.912Z,76.20
2018-06-29T10:02:05.806Z,76.10
2018-06-29T10:04:34.659Z,76.00
2018-06-29T10:09:32.022Z,76.50
2018-06-29T10:14:29.455Z,75.90
2018-06-29T10:16:58.246Z,75.60
2018-06-29T10:19:27.191Z,75.90
2018-06-29T10:21:55.961Z,75.80
2018-06-29T10:24:24.807Z,75.80
2018-06-29T10:26:53.624Z,75.60
2018-06-29T10:29:22.582Z,76.30
2018-06-29T10:31:51.446Z,75.60
2018-06-29T10:34:20.334Z,75.30
2018-06-29T10:36:49.244Z,75.20
2018-06-29T10:39:18.088Z,75.30
2018-06-29T10:44:15.510Z,75.40
2018-06-29T10:46:44.354Z,75.40
2018-06-29T10:49:13.286Z,75.10
2018-06-29T10:51:42.128Z,68.70
2018-06-29T10:54:11.002Z,69.80
2018-06-29T10:56:39.961Z,71.00
2018-06-29T10:59:08.742Z,71.80
2018-06-29T11:01:37.667Z,72.70
2018-06-29T11:04:06.527Z,72.60
2018-06-29T11:06:35.400Z,72.50
2018-06-29T11:09:07.472Z,68.60
2018-06-29T11:11:36.316Z,65.80
2018-06-29T11:14:05.554Z,66.30
2018-06-29T11:16:34.402Z,66.20
2018-06-29T11:19:03.224Z,64.80
2018-06-29T11:21:32.154Z,65.70
2018-06-29T11:24:01.084Z,63.80
2018-06-29T11:26:29.966Z,64.50
2018-06-29T11:31:27.349Z,66.90
2018-06-29T11:33:56.170Z,68.10
2018-06-29T11:36:25.056Z,68.80
2018-06-29T11:38:53.941Z,69.30
2018-06-29T11:41:22.754Z,70.10
2018-06-29T11:43:51.642Z,70.50
2018-06-29T11:46:20.477Z,70.80
2018-06-29T11:48:49.302Z,70.80
2018-06-29T11:51:18.160Z,71.00
2018-06-29T11:53:47.150Z,71.20
2018-06-29T11:56:16.014Z,71.30
2018-06-29T11:58:44.955Z,71.20
2018-06-29T12:01:14.113Z,71.20
2018-06-29T12:03:42.969Z,71.10
2018-06-29T12:06:11.802Z,71.20
2018-06-29T12:08:40.834Z,70.90
2018-06-29T12:11:10.210Z,70.70
2018-06-29T12:13:39.907Z,70.80
2018-06-29T12:16:09.330Z,70.70
2018-06-29T12:18:38.149Z,70.30
2018-06-29T12:21:07.093Z,70.30
2018-06-29T12:23:35.934Z,70.50
2018-06-29T12:26:04.858Z,69.20
2018-06-29T12:28:33.757Z,69.60
2018-06-29T12:31:02.598Z,69.80
2018-06-29T12:33:31.430Z,70.10
2018-06-29T12:36:00.302Z,70.00
2018-06-29T12:38:29.154Z,70.00
2018-06-29T12:40:58.069Z,69.90
2018-06-29T12:43:26.982Z,69.70
2018-06-29T12:45:55.832Z,69.60
2018-06-29T12:48:24.694Z,69.60
2018-06-29T12:50:53.528Z,69.90
2018-06-29T12:53:22.370Z,69.80
2018-06-29T12:55:51.248Z,69.60
2018-06-29T12:58:20.040Z,69.60
2018-06-29T13:00:48.882Z,69.30
2018-06-29T13:03:17.737Z,69.50
2018-06-29T13:05:46.574Z,69.20
2018-06-29T13:08:15.444Z,69.40
2018-06-29T13:10:44.249Z,69.40
2018-06-29T13:13:13.150Z,68.80
2018-06-29T13:15:42.102Z,69.20
2018-06-29T13:18:10.948Z,69.60
2018-06-29T13:20:39.911Z,69.80
2018-06-29T13:23:08.772Z,69.90
2018-06-29T13:25:37.646Z,70.10
2018-06-29T13:28:06.519Z,70.10
2018-06-29T13:30:35.459Z,70.40
2018-06-29T13:33:04.312Z,70.30
2018-06-29T13:35:33.218Z,70.50
2018-06-29T13:38:02.187Z,71.20
2018-06-29T13:40:31.113Z,70.50
2018-06-29T13:42:59.969Z,70.30
2018-06-29T13:45:28.806Z,70.30
2018-06-29T13:50:26.402Z,70.50
2018-06-29T13:52:55.352Z,70.70
2018-06-29T13:55:24.281Z,70.60
2018-06-29T13:57:53.135Z,70.80
2018-06-29T14:00:22.087Z,71.10
2018-06-29T14:02:50.930Z,70.50
2018-06-29T14:05:19.858Z,71.40
2018-06-29T14:07:48.778Z,71.40
2018-06-29T14:10:17.689Z,71.70
2018-06-29T14:12:46.666Z,72.10
2018-06-29T14:15:15.625Z,72.50
2018-06-29T14:17:44.603Z,72.60
2018-06-29T14:20:13.421Z,73.70
2018-06-29T14:22:42.262Z,73.30
2018-06-29T14:25:11.343Z,73.70
2018-06-29T14:27:40.158Z,73.80
2018-06-29T14:30:09.086Z,73.90
2018-06-29T14:32:37.970Z,73.80
2018-06-29T14:35:06.945Z,73.90
2018-06-29T14:37:35.918Z,74.10
2018-06-29T14:40:05.195Z,74.10
2018-06-29T14:42:34.055Z,74.40
2018-06-29T14:45:03.116Z,74.50
2018-06-29T14:47:31.998Z,73.90
2018-06-29T14:50:00.930Z,74.50
2018-06-29T14:52:29.880Z,74.70
2018-06-29T14:54:58.700Z,75.00
2018-06-29T14:57:27.551Z,75.60
2018-06-29T14:59:56.403Z,75.40
2018-06-29T15:02:25.358Z,75.60
2018-06-29T15:04:54.262Z,75.30
2018-06-29T15:07:23.149Z,75.50
2018-06-29T15:09:51.977Z,76.00
2018-06-29T15:12:20.826Z,76.30
2018-06-29T15:14:49.707Z,76.60
2018-06-29T15:17:18.631Z,76.80
2018-06-29T15:19:47.517Z,77.10
2018-06-29T15:22:16.358Z,77.50
2018-06-29T15:24:45.194Z,77.30
2018-06-29T15:27:14.030Z,77.20
2018-06-29T15:29:42.991Z,77.20
2018-06-29T15:32:11.841Z,77.10
2018-06-29T15:34:40.834Z,77.00
2018-06-29T15:37:09.699Z,76.90
2018-06-29T15:39:38.590Z,76.50
2018-06-29T15:42:07.455Z,75.60
2018-06-29T15:44:36.311Z,74.50
2018-06-29T15:47:05.379Z,74.30
2018-06-29T15:49:34.399Z,73.80
2018-06-29T15:52:03.258Z,73.70
2018-06-29T15:54:32.132Z,73.70
2018-06-29T15:57:01.008Z,74.00
2018-06-29T15:59:29.930Z,73.80
2018-06-29T16:01:58.778Z,74.10
2018-06-29T16:04:27.668Z,74.20
2018-06-29T16:06:56.565Z,74.00
2018-06-29T16:09:25.417Z,74.40
2018-06-29T16:11:54.276Z,74.60
2018-06-29T16:14:23.145Z,74.10
2018-06-29T16:16:52.041Z,74.10
2018-06-29T16:19:21.334Z,74.00
2018-06-29T16:21:50.202Z,73.50
2018-06-29T16:24:19.059Z,73.70
2018-06-29T16:26:47.895Z,74.00
2018-06-29T16:29:16.787Z,73.80
2018-06-29T16:31:45.606Z,73.40
2018-06-29T16:34:14.502Z,73.30
2018-06-29T16:36:43.374Z,73.50
2018-06-29T16:39:13.348Z,73.80
2018-06-29T16:41:42.359Z,73.90
2018-06-29T16:44:11.201Z,73.60
2018-06-29T16:46:40.095Z,73.70
2018-06-29T16:49:08.978Z,73.70
2018-06-29T16:51:37.847Z,73.80
2018-06-29T16:54:06.682Z,73.80
2018-06-29T16:56:35.547Z,73.70
2018-06-29T16:59:04.422Z,73.60
2018-06-29T17:01:33.286Z,73.60
2018-06-29T17:04:02.123Z,73.60
2018-06-29T17:06:30.965Z,73.50
2018-06-29T17:08:59.875Z,73.50
2018-06-29T17:11:28.722Z,73.50
2018-06-29T17:13:57.582Z,73.50
2018-06-29T17:16:26.485Z,73.50
2018-06-29T17:18:55.343Z,73.40
2018-06-29T17:21:24.210Z,73.50
2018-06-29T17:23:53.111Z,73.30
2018-06-29T17:26:21.951Z,73.30
2018-06-29T17:28:50.823Z,73.20
2018-06-29T17:31:19.624Z,73.20
2018-06-29T17:33:48.754Z,73.10
2018-06-29T17:36:17.466Z,72.90
2018-06-29T17:38:46.360Z,72.80
2018-06-29T17:41:15.254Z,72.80
2018-06-29T17:43:44.122Z,72.50
2018-06-29T17:46:12.994Z,72.10
2018-06-29T17:48:41.850Z,71.20
2018-06-29T17:51:10.691Z,70.20
2018-06-29T17:53:39.578Z,69.40
2018-06-29T17:56:08.446Z,68.90
2018-06-29T17:58:37.331Z,68.30
2018-06-29T18:01:06.443Z,67.90
2018-06-29T18:03:35.286Z,67.80
2018-06-29T18:06:04.180Z,67.70
2018-06-29T18:08:33.022Z,67.70
2018-06-29T18:11:01.853Z,67.70
2018-06-29T18:13:30.728Z,67.70
2018-06-29T18:15:59.645Z,67.70
2018-06-29T18:18:28.414Z,67.80
2018-06-29T18:20:57.259Z,67.90
2018-06-29T18:23:26.164Z,68.10
2018-06-29T18:25:54.968Z,68.20
2018-06-29T18:30:52.299Z,68.50
2018-06-29T18:33:21.219Z,68.50
2018-06-29T18:35:50.351Z,68.70
2018-06-29T18:38:19.187Z,68.80
2018-06-29T18:40:48.035Z,69.00
2018-06-29T18:43:16.898Z,69.20
2018-06-29T18:45:45.735Z,69.50
2018-06-29T18:48:14.574Z,69.60
2018-06-29T18:50:43.538Z,69.90
2018-06-29T18:53:12.402Z,70.50
2018-06-29T18:55:41.239Z,72.00
2018-06-29T18:58:10.130Z,73.00
2018-06-29T19:00:38.970Z,73.50
2018-06-29T19:03:07.874Z,73.70
2018-06-29T19:05:36.666Z,74.00
2018-06-29T19:08:05.514Z,74.40
2018-06-29T19:10:34.412Z,74.70
2018-06-29T19:13:03.294Z,74.90
2018-06-29T19:15:32.177Z,74.90
2018-06-29T19:18:01.031Z,75.10
2018-06-29T19:20:29.882Z,75.30
2018-06-29T19:22:58.710Z,75.50
2018-06-29T19:27:56.068Z,75.60
2018-06-29T19:30:25.108Z,75.70
2018-06-29T19:32:54.084Z,76.00
2018-06-29T19:35:22.900Z,76.30
2018-06-29T19:37:51.804Z,76.50
2018-06-29T19:42:49.094Z,77.00
2018-06-29T19:45:17.985Z,77.20
2018-06-29T19:47:46.794Z,77.40
2018-06-29T19:50:15.638Z,77.60
2018-06-29T19:52:44.502Z,77.70
2018-06-29T19:55:13.410Z,77.90
2018-06-29T19:57:42.290Z,78.00
2018-06-29T20:00:11.110Z,78.00
2018-06-29T20:02:40.015Z,78.20
2018-06-29T20:05:08.863Z,78.30
2018-06-29T20:07:37.678Z,78.40
2018-06-29T20:10:07.321Z,78.50
2018-06-29T20:12:36.262Z,78.60
2018-06-29T20:15:06.703Z,78.70
2018-06-29T20:17:35.630Z,78.80
2018-06-29T20:20:04.952Z,79.00
2018-06-29T20:22:33.775Z,79.10
2018-06-29T20:25:02.659Z,79.10
2018-06-29T20:27:31.519Z,79.20
2018-06-29T20:30:00.385Z,79.30
2018-06-29T20:32:29.238Z,79.30
2018-06-29T20:34:58.109Z,79.50
2018-06-29T20:37:26.954Z,79.50
2018-06-29T20:42:24.306Z,79.70
2018-06-29T20:47:21.702Z,79.80
2018-06-29T20:49:50.576Z,79.80
2018-06-29T20:52:19.723Z,79.80
2018-06-29T20:54:48.553Z,79.90
2018-06-29T20:57:17.390Z,79.90
2018-06-29T20:59:46.270Z,79.80
2018-06-29T21:02:15.110Z,79.90
2018-06-29T21:04:43.985Z,80.00
2018-06-29T21:07:12.802Z,79.60
2018-06-29T21:09:41.654Z,85.50
2018-06-29T21:12:10.486Z,89.40
2018-06-29T21:14:39.502Z,90.50
2018-06-29T21:17:08.374Z,90.90
2018-06-29T21:19:37.319Z,91.20
2018-06-29T21:22:06.176Z,91.40
2018-06-29T21:24:35.064Z,91.40
2018-06-29T21:27:04.019Z,91.40
2018-06-29T21:29:33.233Z,91.20
2018-06-29T21:32:02.159Z,91.20
2018-06-29T21:34:31.002Z,91.70
2018-06-29T21:37:00.032Z,92.00
2018-06-29T21:39:28.990Z,92.30
2018-06-29T21:41:57.939Z,92.30
2018-06-29T21:44:26.805Z,92.40
2018-06-29T21:46:55.669Z,92.40
2018-06-29T21:49:24.530Z,92.50
2018-06-29T21:51:53.398Z,92.00
2018-06-29T21:54:22.387Z,91.90
2018-06-29T21:56:51.122Z,92.10
2018-06-29T21:59:20.172Z,91.90
2018-06-29T22:01:49.035Z,92.00
2018-06-29T22:04:17.925Z,92.10
2018-06-29T22:06:46.959Z,92.10
2018-06-29T22:11:44.301Z,92.00
2018-06-29T22:14:13.168Z,92.10
2018-06-29T22:16:42.047Z,92.10
2018-06-29T22:19:10.922Z,92.20
2018-06-29T22:21:39.775Z,91.80
2018-06-29T22:24:08.706Z,92.10
2018-06-29T22:26:37.862Z,92.20
2018-06-29T22:29:06.778Z,92.40
2018-06-29T22:31:35.739Z,92.50
2018-06-29T22:34:04.787Z,92.70
2018-06-29T22:36:33.738Z,92.50
2018-06-29T22:39:02.857Z,92.20
2018-06-29T22:41:31.756Z,92.30
2018-06-29T22:44:00.792Z,92.70
2018-06-29T22:46:29.687Z,91.90
2018-06-29T22:48:58.610Z,92.20
2018-06-29T22:51:27.614Z,92.10
2018-06-29T22:53:56.503Z,92.30
2018-06-29T22:56:25.398Z,92.50
2018-06-29T22:58:54.350Z,92.70
2018-06-29T23:01:23.380Z,92.80
2018-06-29T23:03:55.379Z,92.60
2018-06-29T23:06:25.583Z,92.70
2018-06-29T23:08:54.702Z,92.70
2018-06-29T23:11:23.562Z,92.60
2018-06-29T23:13:52.446Z,92.90
2018-06-29T23:16:21.275Z,93.00
2018-06-29T23:18:50.150Z,92.90
2018-06-29T23:21:19.266Z,92.90
2018-06-29T23:23:48.211Z,92.80
2018-06-29T23:26:17.122Z,93.30
2018-06-29T23:28:46.178Z,93.00
2018-06-29T23:31:15.080Z,93.80
2018-06-29T23:33:43.934Z,91.30
2018-06-29T23:36:12.795Z,89.50
2018-06-29T23:38:41.819Z,87.70
2018-06-29T23:43:39.726Z,86.60
2018-06-29T23:46:08.586Z,86.30
2018-06-29T23:48:37.474Z,86.10
2018-06-29T23:51:06.306Z,85.80
2018-06-29T23:53:35.170Z,85.60
2018-06-29T23:56:04.038Z,85.50
2018-06-29T23:58:32.927Z,85.30
